Time;durP1;ratioP1;P1;durP2;ratioP2;P2;SDS_P1;SDS_P2;PMS_P1;PMS_P2;Temp;Humidity;BMP_temperature;BMP_pressure;BME280_temperature;BME280_humidity;BME280_pressure;Samples;Min_cycle;Max_cycle;Signal;HPM_P1;HPM_P2
2022/07/05 00:02:07;;;;;;;16.10;10.37;;;;;;;;;;4990971;28;20077;-61
2022/07/05 00:04:33;;;;;;;17.67;11.57;;;;;;;;;;4990571;28;20035;-60
2022/07/05 00:07:17;;;;;;;15.33;11.47;;;;;;;;;;4991117;28;20038;-61
2022/07/05 00:09:43;;;;;;;14.93;10.53;;;;;;;;;;4990643;28;20046;-61
2022/07/05 00:12:10;;;;;;;15.37;11.47;;;;;;;;;;4989951;28;20112;-61
2022/07/05 00:14:36;;;;;;;15.40;11.63;;;;;;;;;;4990368;28;20449;-61
2022/07/05 00:17:05;;;;;;;16.53;12.07;;;;;;;;;;4989885;28;20093;-61
2022/07/05 00:19:31;;;;;;;21.13;12.27;;;;;;;;;;4989481;28;20104;-61
2022/07/05 00:21:57;;;;;;;15.63;11.80;;;;;;;;;;4989925;28;20432;-61
2022/07/05 00:24:24;;;;;;;14.60;11.67;;;;;;;;;;4989904;28;20054;-61
2022/07/05 00:26:50;;;;;;;19.57;12.83;;;;;;;;;;4990195;28;20039;-61
2022/07/05 00:29:16;;;;;;;18.70;13.80;;;;;;;;;;4989725;28;20416;-61
2022/07/05 00:31:42;;;;;;;17.70;11.73;;;;;;;;;;4981928;28;20056;-61
2022/07/05 00:34:08;;;;;;;15.40;11.40;;;;;;;;;;4990353;28;20038;-61
2022/07/05 00:36:34;;;;;;;16.47;10.93;;;;;;;;;;4989463;28;20046;-61
2022/07/05 00:39:00;;;;;;;21.67;11.60;;;;;;;;;;4990206;28;20440;-61
2022/07/05 00:41:26;;;;;;;17.17;11.43;;;;;;;;;;4989342;28;20050;-61
2022/07/05 00:43:56;;;;;;;15.07;11.17;;;;;;;;;;4989948;28;20841;-61
2022/07/05 00:46:22;;;;;;;19.27;12.67;;;;;;;;;;4989770;28;20077;-61
2022/07/05 00:48:48;;;;;;;25.13;15.87;;;;;;;;;;4989517;28;20072;-61
2022/07/05 00:51:15;;;;;;;24.57;16.33;;;;;;;;;;4989748;28;20046;-61
2022/07/05 00:53:43;;;;;;;23.83;14.87;;;;;;;;;;4989413;28;20042;-60
2022/07/05 00:56:09;;;;;;;23.33;13.97;;;;;;;;;;4989365;28;20537;-61
2022/07/05 00:58:35;;;;;;;21.43;13.97;;;;;;;;;;4989566;28;20054;-61
2022/07/05 01:01:03;;;;;;;22.83;13.13;;;;;;;;;;4989768;28;20122;-60
2022/07/05 01:03:29;;;;;;;19.00;13.37;;;;;;;;;;4988351;28;20100;-61
2022/07/05 01:05:56;;;;;;;19.70;13.50;;;;;;;;;;4989420;28;20489;-60
2022/07/05 01:08:23;;;;;;;18.87;13.50;;;;;;;;;;4988965;28;20046;-61
2022/07/05 01:10:49;;;;;;;21.83;13.80;;;;;;;;;;4988728;28;20050;-61
2022/07/05 01:13:16;;;;;;;16.77;11.87;;;;;;;;;;4987986;28;20054;-61
2022/07/05 01:15:42;;;;;;;17.30;12.63;;;;;;;;;;4989026;28;20050;-61
2022/07/05 01:18:09;;;;;;;21.10;13.43;;;;;;;;;;4989118;28;20431;-61
2022/07/05 01:20:35;;;;;;;18.07;13.87;;;;;;;;;;4988883;28;20549;-61
2022/07/05 01:23:02;;;;;;;22.57;14.23;;;;;;;;;;4989197;28;20058;-61
2022/07/05 01:25:29;;;;;;;22.37;14.83;;;;;;;;;;4988846;28;20054;-60
2022/07/05 01:27:55;;;;;;;24.43;16.27;;;;;;;;;;4988585;28;20413;-60
2022/07/05 01:30:21;;;;;;;20.83;15.77;;;;;;;;;;4987738;28;20065;-60
2022/07/05 01:32:47;;;;;;;25.57;15.73;;;;;;;;;;4988561;28;20508;-60
2022/07/05 01:35:14;;;;;;;23.80;16.83;;;;;;;;;;4988966;28;20485;-60
2022/07/05 01:37:40;;;;;;;31.70;17.03;;;;;;;;;;4988549;28;20043;-60
2022/07/05 01:40:07;;;;;;;18.83;14.20;;;;;;;;;;4988459;28;20524;-60
2022/07/05 01:42:33;;;;;;;23.20;15.10;;;;;;;;;;4987683;28;20497;-60
2022/07/05 01:44:59;;;;;;;29.70;16.23;;;;;;;;;;4988532;28;20129;-60
2022/07/05 01:47:25;;;;;;;24.77;16.93;;;;;;;;;;4988920;28;20042;-60
2022/07/05 01:49:52;;;;;;;26.27;15.37;;;;;;;;;;4989059;28;20047;-60
2022/07/05 01:52:21;;;;;;;29.67;16.67;;;;;;;;;;4988648;28;20057;-60
2022/07/05 01:54:47;;;;;;;22.90;15.30;;;;;;;;;;4988633;28;20038;-61
2022/07/05 01:57:14;;;;;;;30.10;15.50;;;;;;;;;;4987842;28;20042;-61
2022/07/05 01:59:40;;;;;;;26.13;16.33;;;;;;;;;;4988796;28;20046;-60
2022/07/05 02:02:07;;;;;;;22.17;14.73;;;;;;;;;;4988907;28;20050;-60
2022/07/05 02:04:36;;;;;;;20.60;14.90;;;;;;;;;;4988763;28;20039;-61
2022/07/05 02:07:06;;;;;;;25.63;15.80;;;;;;;;;;4989111;28;20046;-60
2022/07/05 02:09:33;;;;;;;31.07;18.27;;;;;;;;;;4988596;28;20057;-61
2022/07/05 02:11:59;;;;;;;31.57;17.73;;;;;;;;;;4988628;28;20049;-61
2022/07/05 02:14:25;;;;;;;27.93;17.00;;;;;;;;;;4988553;28;20055;-61
2022/07/05 02:16:51;;;;;;;30.77;17.83;;;;;;;;;;4989023;28;20045;-61
2022/07/05 02:19:17;;;;;;;31.03;19.00;;;;;;;;;;4988724;28;20065;-61
2022/07/05 02:21:43;;;;;;;26.03;17.83;;;;;;;;;;4987387;28;20046;-61
2022/07/05 02:24:09;;;;;;;29.37;19.13;;;;;;;;;;4988772;28;20061;-61
2022/07/05 02:26:35;;;;;;;29.57;18.40;;;;;;;;;;4988311;28;20106;-61
2022/07/05 02:29:02;;;;;;;37.63;20.30;;;;;;;;;;4987399;28;20042;-61
2022/07/05 02:31:28;;;;;;;26.20;18.70;;;;;;;;;;4988557;28;20129;-61
2022/07/05 02:33:54;;;;;;;23.73;16.60;;;;;;;;;;4988872;28;20096;-61
2022/07/05 02:36:20;;;;;;;26.40;18.20;;;;;;;;;;4988541;28;20523;-61
2022/07/05 02:38:46;;;;;;;28.53;18.00;;;;;;;;;;4988562;28;20106;-61
2022/07/05 02:41:13;;;;;;;28.90;17.73;;;;;;;;;;4988339;28;20042;-61
2022/07/05 02:43:39;;;;;;;31.60;19.93;;;;;;;;;;4991563;28;20046;-61
2022/07/05 02:46:06;;;;;;;25.57;18.10;;;;;;;;;;4992121;28;20049;-61
2022/07/05 02:48:33;;;;;;;25.87;18.30;;;;;;;;;;4991709;28;20563;-61
2022/07/05 02:50:59;;;;;;;29.13;20.00;;;;;;;;;;4991935;28;20046;-61
2022/07/05 02:53:25;;;;;;;31.53;21.57;;;;;;;;;;4991722;28;20050;-61
2022/07/05 02:55:52;;;;;;;33.57;21.87;;;;;;;;;;4991477;28;20046;-61
2022/07/05 02:58:18;;;;;;;35.60;21.33;;;;;;;;;;4991830;28;20047;-61
2022/07/05 03:00:44;;;;;;;38.63;22.57;;;;;;;;;;4991597;28;20052;-61
2022/07/05 03:03:10;;;;;;;36.90;22.07;;;;;;;;;;4991636;28;20536;-61
2022/07/05 03:05:36;;;;;;;34.13;22.40;;;;;;;;;;4991601;28;20101;-61
2022/07/05 03:08:02;;;;;;;37.63;22.97;;;;;;;;;;4991342;28;20448;-61
2022/07/05 03:10:28;;;;;;;37.93;23.43;;;;;;;;;;4991163;28;20412;-62
2022/07/05 03:12:54;;;;;;;33.97;21.17;;;;;;;;;;4991788;28;20488;-61
2022/07/05 03:15:20;;;;;;;33.03;21.33;;;;;;;;;;4991803;28;20046;-61
2022/07/05 03:17:46;;;;;;;31.43;21.83;;;;;;;;;;4991152;28;20077;-61
2022/07/05 03:20:12;;;;;;;35.53;23.13;;;;;;;;;;4991289;28;20073;-61
2022/07/05 03:22:38;;;;;;;32.50;22.47;;;;;;;;;;4991338;28;20401;-61
2022/07/05 03:25:05;;;;;;;41.83;25.37;;;;;;;;;;4991404;28;20482;-61
2022/07/05 03:27:31;;;;;;;33.20;22.63;;;;;;;;;;4990993;28;20042;-61
2022/07/05 03:29:57;;;;;;;44.57;26.00;;;;;;;;;;4991135;28;20428;-61
2022/07/05 03:32:23;;;;;;;48.00;26.87;;;;;;;;;;4990490;28;20046;-61
2022/07/05 03:34:49;;;;;;;34.57;24.10;;;;;;;;;;4990913;28;20046;-61
2022/07/05 03:37:15;;;;;;;33.67;24.33;;;;;;;;;;4991229;28;20089;-61
2022/07/05 03:39:41;;;;;;;34.43;23.07;;;;;;;;;;4990393;28;20050;-60
2022/07/05 03:42:07;;;;;;;39.17;24.97;;;;;;;;;;4991072;28;20049;-61
2022/07/05 03:44:33;;;;;;;42.90;25.73;;;;;;;;;;4990558;28;20412;-60
2022/07/05 03:47:00;;;;;;;35.80;24.47;;;;;;;;;;4990975;28;20137;-61
2022/07/05 03:49:26;;;;;;;33.30;24.23;;;;;;;;;;4990509;28;20657;-61
2022/07/05 03:51:52;;;;;;;48.00;28.80;;;;;;;;;;4989942;28;20046;-61
2022/07/05 03:54:18;;;;;;;35.03;23.90;;;;;;;;;;4987427;28;20409;-62
2022/07/05 03:56:45;;;;;;;42.90;25.53;;;;;;;;;;4990621;28;20057;-61
2022/07/05 03:59:11;;;;;;;45.30;28.17;;;;;;;;;;4990171;28;20050;-61
2022/07/05 04:01:37;;;;;;;51.53;28.27;;;;;;;;;;4990707;28;20138;-61
2022/07/05 04:04:03;;;;;;;36.90;24.00;;;;;;;;;;4990359;28;20523;-61
2022/07/05 04:06:29;;;;;;;41.40;27.50;;;;;;;;;;4990327;28;20651;-61
2022/07/05 04:08:55;;;;;;;32.00;23.50;;;;;;;;;;4990113;28;20497;-61
2022/07/05 04:11:21;;;;;;;30.33;22.97;;;;;;;;;;4989833;28;20070;-61
2022/07/05 04:13:47;;;;;;;35.80;23.57;;;;;;;;;;4990350;28;20076;-62
2022/07/05 04:16:13;;;;;;;28.67;22.23;;;;;;;;;;4990731;28;20069;-61
2022/07/05 04:18:39;;;;;;;36.13;24.60;;;;;;;;;;4990513;28;20053;-61
2022/07/05 04:21:05;;;;;;;34.87;24.77;;;;;;;;;;4990020;28;20058;-61
2022/07/05 04:23:31;;;;;;;44.40;27.07;;;;;;;;;;4989738;28;20054;-61
2022/07/05 04:25:57;;;;;;;28.57;21.07;;;;;;;;;;4989526;28;20049;-61
2022/07/05 04:28:23;;;;;;;24.60;19.43;;;;;;;;;;4990201;28;20105;-61
2022/07/05 04:30:49;;;;;;;30.23;21.10;;;;;;;;;;4989985;28;20050;-61
2022/07/05 04:33:16;;;;;;;33.40;20.53;;;;;;;;;;4989928;28;20425;-61
2022/07/05 04:35:41;;;;;;;24.27;19.00;;;;;;;;;;4989591;28;20048;-62
2022/07/05 04:38:07;;;;;;;26.00;18.73;;;;;;;;;;4990071;28;20432;-61
2022/07/05 04:40:33;;;;;;;26.07;18.23;;;;;;;;;;4990442;28;20093;-61
2022/07/05 04:42:59;;;;;;;21.93;17.03;;;;;;;;;;4989193;28;20097;-61
2022/07/05 04:45:25;;;;;;;31.03;20.77;;;;;;;;;;4989211;28;21055;-61
2022/07/05 04:47:51;;;;;;;21.83;16.47;;;;;;;;;;4989082;28;20118;-61
2022/07/05 04:50:17;;;;;;;22.37;16.73;;;;;;;;;;4989416;28;20042;-61
2022/07/05 04:52:43;;;;;;;21.33;16.60;;;;;;;;;;4988897;28;20042;-61
2022/07/05 04:55:10;;;;;;;20.60;15.07;;;;;;;;;;4970370;28;20046;-61
2022/07/05 04:57:39;;;;;;;27.67;18.50;;;;;;;;;;4984693;28;20069;-61
2022/07/05 05:00:06;;;;;;;17.47;14.57;;;;;;;;;;4988806;28;20105;-61
2022/07/05 05:02:32;;;;;;;23.27;17.43;;;;;;;;;;4989181;28;20046;-61
2022/07/05 05:04:58;;;;;;;21.03;15.43;;;;;;;;;;4989376;28;20046;-61
2022/07/05 05:07:24;;;;;;;18.93;14.17;;;;;;;;;;4988606;28;20050;-61
2022/07/05 05:09:50;;;;;;;20.50;15.40;;;;;;;;;;4988542;28;20051;-61
2022/07/05 05:12:16;;;;;;;19.37;15.27;;;;;;;;;;4989303;28;20116;-61
2022/07/05 05:14:42;;;;;;;15.87;13.93;;;;;;;;;;4989025;28;20468;-61
2022/07/05 05:17:08;;;;;;;20.33;14.77;;;;;;;;;;4987859;28;20074;-61
2022/07/05 05:19:34;;;;;;;21.90;13.90;;;;;;;;;;4989236;28;20053;-61
2022/07/05 05:22:00;;;;;;;18.80;14.23;;;;;;;;;;4989149;28;20420;-62
2022/07/05 05:24:26;;;;;;;20.50;14.27;;;;;;;;;;4988627;28;20046;-61
2022/07/05 05:26:52;;;;;;;15.53;11.77;;;;;;;;;;4989042;28;20062;-61
2022/07/05 05:29:20;;;;;;;18.17;11.73;;;;;;;;;;4989099;28;20489;-61
2022/07/05 05:31:46;;;;;;;15.67;11.53;;;;;;;;;;4978189;28;20770;-61
2022/07/05 05:34:12;;;;;;;14.40;11.50;;;;;;;;;;4989019;28;20133;-61
2022/07/05 05:36:39;;;;;;;15.27;10.87;;;;;;;;;;4989019;28;20039;-61
2022/07/05 05:39:05;;;;;;;13.40;10.27;;;;;;;;;;4988835;28;20508;-61
2022/07/05 05:41:31;;;;;;;10.50;9.40;;;;;;;;;;4988566;28;20129;-61
2022/07/05 05:43:57;;;;;;;10.63;9.53;;;;;;;;;;4989241;28;20049;-61
2022/07/05 05:46:23;;;;;;;11.13;9.60;;;;;;;;;;4989117;28;20051;-61
2022/07/05 05:48:49;;;;;;;12.50;9.33;;;;;;;;;;4988872;28;20046;-61
2022/07/05 05:51:15;;;;;;;15.33;8.93;;;;;;;;;;4989031;28;20043;-61
2022/07/05 05:53:41;;;;;;;13.90;8.90;;;;;;;;;;4988684;28;20126;-60
2022/07/05 05:56:07;;;;;;;13.53;9.47;;;;;;;;;;4988828;28;20172;-61
2022/07/05 05:58:33;;;;;;;12.63;8.90;;;;;;;;;;4989211;28;20046;-61
2022/07/05 06:00:59;;;;;;;13.23;8.17;;;;;;;;;;4988561;28;20096;-61
2022/07/05 06:03:27;;;;;;;13.37;9.33;;;;;;;;;;4988451;28;20489;-61
2022/07/05 06:05:53;;;;;;;13.27;7.70;;;;;;;;;;4989209;28;20058;-61
2022/07/05 06:08:19;;;;;;;11.67;7.90;;;;;;;;;;4988656;28;20460;-61
2022/07/05 06:10:45;;;;;;;12.37;8.10;;;;;;;;;;4988398;28;20046;-61
2022/07/05 06:13:12;;;;;;;9.67;7.10;;;;;;;;;;4988704;28;20058;-61
2022/07/05 06:15:39;;;;;;;11.53;7.93;;;;;;;;;;4988934;28;20504;-61
2022/07/05 06:18:05;;;;;;;13.40;7.77;;;;;;;;;;4990581;28;20046;-61
2022/07/05 06:20:32;;;;;;;8.13;5.77;;;;;;;;;;4991475;28;20041;-61
2022/07/05 06:22:59;;;;;;;8.13;6.20;;;;;;;;;;4991836;28;20141;-61
2022/07/05 06:25:25;;;;;;;9.27;6.07;;;;;;;;;;4991225;28;20504;-61
2022/07/05 06:27:55;;;;;;;8.93;6.60;;;;;;;;;;4992715;28;20133;-61
2022/07/05 06:30:22;;;;;;;8.30;5.53;;;;;;;;;;4992002;28;20050;-62
2022/07/05 06:32:49;;;;;;;8.93;5.17;;;;;;;;;;4992648;28;20052;-61
2022/07/05 06:35:15;;;;;;;8.00;4.50;;;;;;;;;;4993484;28;20046;-61
2022/07/05 06:37:41;;;;;;;6.10;4.30;;;;;;;;;;5006088;28;20074;-60
2022/07/05 06:40:08;;;;;;;7.30;3.57;;;;;;;;;;4991993;28;20096;-61
2022/07/05 06:42:34;;;;;;;5.70;3.17;;;;;;;;;;4973997;28;20121;-61
2022/07/05 06:45:00;;;;;;;6.57;3.30;;;;;;;;;;4991945;28;20456;-61
2022/07/05 06:47:26;;;;;;;7.43;3.10;;;;;;;;;;4988267;28;20049;-61
2022/07/05 06:49:52;;;;;;;7.40;3.50;;;;;;;;;;4990129;28;20089;-61
2022/07/05 06:52:18;;;;;;;9.80;3.03;;;;;;;;;;4987245;28;20050;-61
2022/07/05 06:54:44;;;;;;;8.00;2.83;;;;;;;;;;4972022;28;20051;-61
2022/07/05 06:57:10;;;;;;;8.30;3.17;;;;;;;;;;4990281;28;20390;-61
2022/07/05 06:59:36;;;;;;;9.93;2.70;;;;;;;;;;4990600;28;20046;-61
2022/07/05 07:02:03;;;;;;;6.30;2.13;;;;;;;;;;4992033;28;20042;-61
2022/07/05 07:04:29;;;;;;;5.00;2.57;;;;;;;;;;4990833;28;20109;-61
2022/07/05 07:06:55;;;;;;;7.30;1.93;;;;;;;;;;4992148;28;20070;-61
2022/07/05 07:09:22;;;;;;;5.40;1.90;;;;;;;;;;4983887;28;20049;-61
2022/07/05 07:11:49;;;;;;;7.00;1.50;;;;;;;;;;4991473;28;20058;-61
2022/07/05 07:14:18;;;;;;;5.17;1.50;;;;;;;;;;4991971;28;20046;-61
2022/07/05 07:16:44;;;;;;;7.57;2.00;;;;;;;;;;4989995;28;20089;-61
2022/07/05 07:19:10;;;;;;;8.00;1.70;;;;;;;;;;4989963;28;20043;-61
2022/07/05 07:21:37;;;;;;;6.10;1.73;;;;;;;;;;4982578;28;20330;-62
2022/07/05 07:24:03;;;;;;;4.93;1.40;;;;;;;;;;4987608;28;20153;-61
2022/07/05 07:26:29;;;;;;;3.87;1.87;;;;;;;;;;4989285;28;20497;-61
2022/07/05 07:28:55;;;;;;;4.93;1.00;;;;;;;;;;4987682;28;20073;-61
2022/07/05 07:31:21;;;;;;;5.73;1.87;;;;;;;;;;4988050;28;20046;-61
2022/07/05 07:33:47;;;;;;;2.80;1.20;;;;;;;;;;4986883;28;20085;-61
2022/07/05 07:36:13;;;;;;;6.63;1.43;;;;;;;;;;4989189;28;20045;-60
2022/07/05 07:38:39;;;;;;;5.37;1.00;;;;;;;;;;4986473;28;20050;-61
2022/07/05 07:41:05;;;;;;;6.17;1.30;;;;;;;;;;4987630;28;20109;-61
2022/07/05 07:43:31;;;;;;;4.93;1.03;;;;;;;;;;4989618;28;20058;-61
2022/07/05 07:45:57;;;;;;;4.07;1.00;;;;;;;;;;4988643;28;20417;-61
2022/07/05 07:48:24;;;;;;;6.10;1.07;;;;;;;;;;4987957;28;20339;-61
2022/07/05 07:50:50;;;;;;;3.33;0.93;;;;;;;;;;4990188;28;20050;-61
2022/07/05 07:53:16;;;;;;;4.40;1.07;;;;;;;;;;4989059;28;20077;-61
2022/07/05 07:55:42;;;;;;;4.50;0.83;;;;;;;;;;4990261;28;20046;-61
2022/07/05 07:58:09;;;;;;;3.90;1.07;;;;;;;;;;4988988;28;20042;-61
2022/07/05 08:00:35;;;;;;;5.03;0.90;;;;;;;;;;4989028;28;20053;-61
2022/07/05 08:03:01;;;;;;;3.73;0.70;;;;;;;;;;4986785;28;20105;-61
2022/07/05 08:05:27;;;;;;;4.40;1.00;;;;;;;;;;4989027;28;20046;-61
2022/07/05 08:07:53;;;;;;;4.00;1.00;;;;;;;;;;4990081;28;20054;-61
2022/07/05 08:10:19;;;;;;;6.73;0.90;;;;;;;;;;4988848;28;20053;-61
2022/07/05 08:12:45;;;;;;;4.43;1.10;;;;;;;;;;4989108;28;20046;-61
2022/07/05 08:15:11;;;;;;;3.20;0.80;;;;;;;;;;4988701;28;20053;-61
2022/07/05 08:21:30;;;;;;;3.60;1.10;;;;;;;;;;4988072;28;20042;-61
2022/07/05 08:23:09;;;;;;;3.90;1.00;;;;;;;;;;4981346;28;20090;-61
2022/07/05 08:25:35;;;;;;;2.60;0.80;;;;;;;;;;4981224;28;20125;-61
2022/07/05 08:28:01;;;;;;;3.37;1.00;;;;;;;;;;4986709;28;20493;-61
2022/07/05 08:30:27;;;;;;;5.67;1.50;;;;;;;;;;4989198;28;20328;-61
2022/07/05 08:32:53;;;;;;;2.63;0.93;;;;;;;;;;4987981;28;20050;-62
2022/07/05 08:35:19;;;;;;;5.93;0.80;;;;;;;;;;4986611;28;20058;-61
2022/07/05 08:37:45;;;;;;;4.63;1.33;;;;;;;;;;4987993;28;20053;-61
2022/07/05 08:40:13;;;;;;;3.43;1.00;;;;;;;;;;4987981;28;20038;-61
2022/07/05 08:42:39;;;;;;;3.33;0.90;;;;;;;;;;4988968;28;20057;-61
2022/07/05 08:45:05;;;;;;;3.23;0.80;;;;;;;;;;4987790;28;20057;-61
2022/07/05 08:47:32;;;;;;;2.37;0.70;;;;;;;;;;4987318;28;20409;-61
2022/07/05 08:49:59;;;;;;;3.50;1.10;;;;;;;;;;4988722;28;20058;-61
2022/07/05 08:52:26;;;;;;;3.67;1.10;;;;;;;;;;4987263;28;20050;-61
2022/07/05 08:54:53;;;;;;;2.60;1.00;;;;;;;;;;4988796;28;20475;-61
2022/07/05 08:57:19;;;;;;;2.47;1.00;;;;;;;;;;4988998;28;20050;-61
2022/07/05 08:59:45;;;;;;;3.17;0.90;;;;;;;;;;4987971;28;20046;-61
2022/07/05 09:02:13;;;;;;;3.30;0.90;;;;;;;;;;4986188;28;20070;-61
2022/07/05 09:04:42;;;;;;;3.00;0.80;;;;;;;;;;4987155;28;20061;-61
2022/07/05 09:07:08;;;;;;;4.85;1.10;;;;;;;;;;4988951;28;20042;-61
2022/07/05 09:09:36;;;;;;;8.80;1.10;;;;;;;;;;4987926;28;20058;-61
2022/07/05 09:12:02;;;;;;;5.68;1.00;;;;;;;;;;4988778;28;20408;-61
2022/07/05 09:14:28;;;;;;;6.35;1.30;;;;;;;;;;4987641;28;20042;-61
2022/07/05 09:16:55;;;;;;;4.93;1.20;;;;;;;;;;4988480;28;20125;-61
2022/07/05 09:19:21;;;;;;;5.82;0.90;;;;;;;;;;4988043;28;20050;-61
2022/07/05 09:21:47;;;;;;;3.25;0.77;;;;;;;;;;4984210;28;20413;-62
2022/07/05 09:24:14;;;;;;;4.63;1.00;;;;;;;;;;4967536;28;20445;-62
2022/07/05 09:26:44;;;;;;;5.15;1.02;;;;;;;;;;4980372;28;20046;-61
2022/07/05 09:29:20;;;;;;;4.95;1.30;;;;;;;;;;4988681;28;20081;-61
2022/07/05 09:31:48;;;;;;;3.92;0.88;;;;;;;;;;4987160;28;20171;-61
2022/07/05 09:34:18;;;;;;;4.03;1.02;;;;;;;;;;4984641;28;20050;-62
2022/07/05 09:36:48;;;;;;;4.88;0.82;;;;;;;;;;4987511;28;20125;-61
2022/07/05 09:39:14;;;;;;;1.98;0.70;;;;;;;;;;4987113;28;20038;-61
2022/07/05 09:41:40;;;;;;;4.15;1.20;;;;;;;;;;4988310;28;20051;-61
2022/07/05 09:44:06;;;;;;;5.72;1.13;;;;;;;;;;4988113;28;20038;-62
2022/07/05 09:46:32;;;;;;;4.40;0.88;;;;;;;;;;4987428;28;20047;-61
2022/07/05 09:48:58;;;;;;;5.55;1.00;;;;;;;;;;4986649;28;20038;-61
2022/07/05 09:51:24;;;;;;;4.95;1.02;;;;;;;;;;4984451;28;20046;-61
2022/07/05 09:53:58;;;;;;;5.82;1.55;;;;;;;;;;4991780;28;20046;-61
2022/07/05 09:56:29;;;;;;;3.92;1.17;;;;;;;;;;4990678;28;20042;-61
2022/07/05 09:58:55;;;;;;;1.92;0.93;;;;;;;;;;4992926;28;20042;-61
2022/07/05 10:01:28;;;;;;;3.50;1.00;;;;;;;;;;4990933;28;20042;-61
2022/07/05 10:03:54;;;;;;;;;;;;;;;;;;4991949;28;20412;-61
2022/07/05 10:06:21;;;;;;;5.40;0.90;;;;;;;;;;4992128;28;19929;-61
2022/07/05 10:08:49;;;;;;;3.65;1.00;;;;;;;;;;4988578;28;20417;-61
2022/07/05 10:11:18;;;;;;;4.28;0.93;;;;;;;;;;4992234;28;20050;-61
2022/07/05 10:13:45;;;;;;;3.08;1.40;;;;;;;;;;4991645;28;20050;-61
2022/07/05 10:16:11;;;;;;;3.35;1.08;;;;;;;;;;4992313;28;20050;-61
2022/07/05 10:18:38;;;;;;;2.63;0.80;;;;;;;;;;4991721;28;20069;-61
2022/07/05 10:21:06;;;;;;;7.33;1.47;;;;;;;;;;4991097;28;20077;-61
2022/07/05 10:23:32;;;;;;;2.83;1.20;;;;;;;;;;4989213;28;20187;-61
2022/07/05 10:25:58;;;;;;;3.87;1.00;;;;;;;;;;4991097;28;20068;-62
2022/07/05 10:28:24;;;;;;;2.30;0.90;;;;;;;;;;4991980;28;20039;-61
2022/07/05 10:30:51;;;;;;;5.50;1.05;;;;;;;;;;4988591;28;20740;-61
2022/07/05 10:33:25;;;;;;;3.17;0.90;;;;;;;;;;4991576;28;20068;-61
2022/07/05 10:35:51;;;;;;;2.90;1.00;;;;;;;;;;4992885;28;20054;-61
2022/07/05 10:38:17;;;;;;;2.67;0.88;;;;;;;;;;4992360;28;20077;-61
2022/07/05 10:40:46;;;;;;;3.60;1.10;;;;;;;;;;4991567;28;20046;-61
2022/07/05 10:43:13;;;;;;;4.90;1.00;;;;;;;;;;4990751;28;20529;-61
2022/07/05 10:45:41;;;;;;;3.47;1.10;;;;;;;;;;4990556;28;21331;-61
2022/07/05 10:48:13;;;;;;;7.53;1.20;;;;;;;;;;4989758;28;20046;-61
2022/07/05 10:50:45;;;;;;;3.83;0.95;;;;;;;;;;4990136;28;20077;-61
2022/07/05 10:53:12;;;;;;;5.63;1.40;;;;;;;;;;4990350;28;20496;-61
2022/07/05 10:55:55;;;;;;;5.75;1.38;;;;;;;;;;4990194;28;20078;-61
2022/07/05 10:58:21;;;;;;;3.15;0.77;;;;;;;;;;4991069;28;20050;-61
2022/07/05 11:00:49;;;;;;;4.82;1.10;;;;;;;;;;4991965;28;20046;-60
2022/07/05 11:03:36;;;;;;;5.65;1.08;;;;;;;;;;4990819;28;20108;-61
2022/07/05 11:06:04;;;;;;;6.97;1.02;;;;;;;;;;4992062;28;20046;-61
2022/07/05 11:08:32;;;;;;;3.95;1.00;;;;;;;;;;4990149;28;20100;-61
2022/07/05 11:11:11;;;;;;;5.68;1.20;;;;;;;;;;4991015;28;20054;-61
2022/07/05 11:13:43;;;;;;;4.13;1.30;;;;;;;;;;4991642;28;20065;-61
2022/07/05 11:16:22;;;;;;;2.92;0.82;;;;;;;;;;4991482;28;20501;-60
2022/07/05 11:18:50;;;;;;;4.03;1.00;;;;;;;;;;4990885;28;20046;-61
2022/07/05 11:21:20;;;;;;;7.40;1.40;;;;;;;;;;4991757;28;20050;-61
2022/07/05 11:23:46;;;;;;;4.88;1.00;;;;;;;;;;4991239;28;20068;-61
2022/07/05 11:26:13;;;;;;;5.30;1.00;;;;;;;;;;4991165;28;20051;-61
2022/07/05 11:28:46;;;;;;;5.40;1.10;;;;;;;;;;4991305;28;20050;-62
2022/07/05 11:31:13;;;;;;;3.55;1.17;;;;;;;;;;4990288;28;20056;-61
2022/07/05 11:33:40;;;;;;;3.10;1.00;;;;;;;;;;4971765;28;20113;-61
2022/07/05 11:36:07;;;;;;;4.23;0.83;;;;;;;;;;4979814;28;20527;-61
2022/07/05 11:38:34;;;;;;;7.30;1.10;;;;;;;;;;4991302;28;20054;-61
2022/07/05 11:41:11;;;;;;;4.55;0.88;;;;;;;;;;4991144;28;20111;-61
2022/07/05 11:43:38;;;;;;;3.35;0.95;;;;;;;;;;4990407;28;20133;-61
2022/07/05 11:46:04;;;;;;;3.60;1.33;;;;;;;;;;4990624;28;20050;-62
2022/07/05 11:48:30;;;;;;;4.13;0.98;;;;;;;;;;4990500;28;20157;-61
2022/07/05 11:50:57;;;;;;;4.82;1.05;;;;;;;;;;4990870;28;20493;-61
2022/07/05 11:53:31;;;;;;;3.15;1.10;;;;;;;;;;4990154;28;20038;-61
2022/07/05 11:55:59;;;;;;;3.92;1.13;;;;;;;;;;4990752;28;20050;-61
2022/07/05 11:58:32;;;;;;;3.25;1.05;;;;;;;;;;4990412;28;20057;-61
2022/07/05 12:00:58;;;;;;;3.55;1.00;;;;;;;;;;4990286;28;20042;-61
2022/07/05 12:03:24;;;;;;;3.20;1.00;;;;;;;;;;4990311;28;20408;-61
2022/07/05 12:05:52;;;;;;;3.10;0.90;;;;;;;;;;4990496;28;20046;-62
2022/07/05 12:08:24;;;;;;;2.38;1.15;;;;;;;;;;4990533;28;20104;-61
2022/07/05 12:13:48;;;;;;;2.20;0.75;;;;;;;;;;4989795;28;20131;-62
2022/07/05 12:16:14;;;;;;;3.10;1.08;;;;;;;;;;4990066;28;20050;-61
2022/07/05 12:18:47;;;;;;;2.65;0.80;;;;;;;;;;4990416;28;20050;-61
2022/07/05 12:21:14;;;;;;;3.42;0.95;;;;;;;;;;4990075;28;20108;-61
2022/07/05 12:23:41;;;;;;;4.25;0.90;;;;;;;;;;4989565;28;20065;-62
2022/07/05 12:26:07;;;;;;;2.83;0.93;;;;;;;;;;4990413;28;20043;-61
2022/07/05 12:28:36;;;;;;;3.10;0.80;;;;;;;;;;4990277;28;20043;-62
2022/07/05 12:31:14;;;;;;;4.15;1.15;;;;;;;;;;4989858;28;20073;-61
2022/07/05 12:33:40;;;;;;;2.80;0.73;;;;;;;;;;4989502;28;20042;-62
2022/07/05 12:36:11;;;;;;;2.53;0.60;;;;;;;;;;4990064;28;20528;-61
2022/07/05 12:38:37;;;;;;;3.75;0.80;;;;;;;;;;4988193;28;20448;-62
2022/07/05 12:41:03;;;;;;;4.15;0.82;;;;;;;;;;4989191;28;20038;-62
2022/07/05 12:43:29;;;;;;;4.55;1.35;;;;;;;;;;4989689;28;20432;-61
2022/07/05 12:46:02;;;;;;;2.05;0.63;;;;;;;;;;4989796;28;20030;-61
2022/07/05 12:48:36;;;;;;;2.78;0.80;;;;;;;;;;4989544;28;20515;-61
2022/07/05 12:51:03;;;;;;;2.97;0.50;;;;;;;;;;4989474;28;20053;-61
2022/07/05 12:59:04;;;;;;;3.42;1.25;;;;;;;;;;4989316;28;20046;-62
2022/07/05 13:01:36;;;;;;;4.63;0.93;;;;;;;;;;4989070;28;20394;-61
2022/07/05 13:04:08;;;;;;;1.55;0.70;;;;;;;;;;4989418;28;20058;-61
2022/07/05 13:06:42;;;;;;;2.45;0.80;;;;;;;;;;4989631;28;20137;-61
2022/07/05 13:09:08;;;;;;;4.28;0.98;;;;;;;;;;4988846;28;20056;-62
2022/07/05 13:11:34;;;;;;;2.05;0.70;;;;;;;;;;4989231;28;20534;-62
2022/07/05 13:14:00;;;;;;;1.85;0.90;;;;;;;;;;4989810;28;20440;-62
2022/07/05 13:16:26;;;;;;;2.97;1.05;;;;;;;;;;4989262;28;20448;-61
2022/07/05 13:18:52;;;;;;;2.42;0.70;;;;;;;;;;4989163;28;20097;-61
2022/07/05 13:21:18;;;;;;;2.75;0.82;;;;;;;;;;4989413;28;20054;-61
2022/07/05 13:23:45;;;;;;;3.17;0.95;;;;;;;;;;4988740;28;20054;-60
2022/07/05 13:26:11;;;;;;;4.10;0.90;;;;;;;;;;4988658;28;20050;-60
2022/07/05 13:28:37;;;;;;;1.58;0.63;;;;;;;;;;4989288;28;20500;-60
2022/07/05 13:31:03;;;;;;;4.53;0.80;;;;;;;;;;4989033;28;20054;-60
2022/07/05 13:33:29;;;;;;;4.03;1.00;;;;;;;;;;4988628;28;20042;-60
2022/07/05 13:35:55;;;;;;;2.55;0.60;;;;;;;;;;4988146;28;21040;-60
2022/07/05 13:38:21;;;;;;;2.28;0.90;;;;;;;;;;4989156;28;20448;-60
2022/07/05 13:40:47;;;;;;;1.85;1.15;;;;;;;;;;4988447;28;20046;-60
2022/07/05 13:43:13;;;;;;;2.92;1.05;;;;;;;;;;4983978;28;20345;-60
2022/07/05 13:45:39;;;;;;;2.58;0.70;;;;;;;;;;4989448;28;20092;-60
2022/07/05 13:48:05;;;;;;;2.40;0.70;;;;;;;;;;4985918;28;20133;-60
2022/07/05 13:50:31;;;;;;;2.63;0.70;;;;;;;;;;4988959;28;20157;-59
2022/07/05 13:52:57;;;;;;;1.80;0.50;;;;;;;;;;4988505;28;20607;-59
2022/07/05 13:55:23;;;;;;;2.70;0.60;;;;;;;;;;4988950;28;20039;-60
2022/07/05 13:57:49;;;;;;;3.10;1.13;;;;;;;;;;4989197;28;20775;-60
2022/07/05 14:00:16;;;;;;;2.35;0.68;;;;;;;;;;4989287;28;20054;-60
2022/07/05 14:02:43;;;;;;;2.53;0.80;;;;;;;;;;4980667;28;20044;-60
2022/07/05 14:05:10;;;;;;;2.20;0.80;;;;;;;;;;4989354;28;20516;-59
2022/07/05 14:07:36;;;;;;;2.17;0.65;;;;;;;;;;4989093;28;20046;-59
2022/07/05 14:10:02;;;;;;;1.75;0.73;;;;;;;;;;4989268;28;20038;-60
2022/07/05 14:12:28;;;;;;;3.47;0.77;;;;;;;;;;4988979;28;20069;-60
2022/07/05 14:14:54;;;;;;;2.45;0.65;;;;;;;;;;4988680;28;20051;-61
2022/07/05 14:17:20;;;;;;;2.13;0.57;;;;;;;;;;4988727;28;20047;-61
2022/07/05 14:19:46;;;;;;;3.25;0.77;;;;;;;;;;4988712;28;20042;-60
2022/07/05 14:22:12;;;;;;;2.58;0.80;;;;;;;;;;4988392;28;20141;-60
2022/07/05 14:24:38;;;;;;;3.03;0.77;;;;;;;;;;4988577;28;20046;-60
2022/07/05 14:27:08;;;;;;;1.80;0.70;;;;;;;;;;4988999;28;20050;-60
2022/07/05 14:29:34;;;;;;;1.08;0.40;;;;;;;;;;4986945;28;20050;-60
2022/07/05 14:32:00;;;;;;;1.88;0.55;;;;;;;;;;4988814;28;20090;-61
2022/07/05 14:34:28;;;;;;;1.42;0.80;;;;;;;;;;4979588;28;20038;-61
2022/07/05 14:36:54;;;;;;;3.47;0.90;;;;;;;;;;4980622;28;20057;-61
2022/07/05 14:39:20;;;;;;;2.40;0.57;;;;;;;;;;4991974;28;20504;-61
2022/07/05 14:41:46;;;;;;;3.65;0.70;;;;;;;;;;4986970;28;20452;-62
2022/07/05 14:44:13;;;;;;;1.63;0.60;;;;;;;;;;4986596;28;20165;-59